Overview Statistics Trail Chart Weather Telemetry Raw packets
 

This is the latest recevied weather packets stored in our database for station/object K8RRT. If no packets are shown the sender has not sent any weather packets the latest 10 day(s).

<< 99 100 101 102 103 104 105 >>
Time Temp. Humidity Pressure Rain* Wind** Luminosity Snow
1787868377 23.89° C 95% 1009.7 hPa 4.83 mm - 335 W/m² -
1787868072 23.33° C 97% 1010.1 hPa 3.05 mm - 231 W/m² -
1787867767 22.78° C 98% 1010.1 hPa 0 mm - 121 W/m² -
1787867462 22.78° C 98% 1009.6 hPa 0 mm - 122 W/m² -
1787867158 22.78° C 98% 1009.5 hPa 0 mm - 157 W/m² -
1787866853 22.78° C 98% 1009.5 hPa 0 mm - 177 W/m² -
1787866548 22.22° C 97% 1009.8 hPa 0 mm - 184 W/m² -
1787866246 22.22° C 97% 1010.1 hPa 0 mm - 170 W/m² -
1787865942 21.67° C 98% 1010 hPa 0 mm - 147 W/m² -
1787865637 21.67° C 96% 1010 hPa 3.05 mm - 100 W/m² -
1787865337 21.67° C 95% 1009.5 hPa 16.76 mm - 78 W/m² -
1787865032 22.22° C 93% 1009.8 hPa 13.72 mm - 64 W/m² -
1787864728 22.22° C 88% 1010 hPa 1.78 mm - 53 W/m² -
1787864434 22.22° C 86% 1009.6 hPa 1.78 mm - 46 W/m² -
1787864127 21.67° C 87% 1009.5 hPa 0 mm - 60 W/m² -
1787863826 22.22° C 83% 1009.6 hPa 3.05 mm - 45 W/m² -
1787863525 22.22° C 82% 1009.5 hPa 3.05 mm - 21 W/m² -
1787863221 23.89° C 78% 1009.5 hPa 0 mm - 12 W/m² -
1787862916 26.11° C 80% 1009.4 hPa 0 mm - 23 W/m² -
1787862610 26.67° C 78% 1009.5 hPa 0 mm - 65 W/m² -
1787862306 28.89° C 70% 1009.3 hPa 0 mm - 117 W/m² -
1787862001 29.44° C 69% 1009.3 hPa 0 mm - 134 W/m² -
1787861695 30° C 68% 1009.3 hPa 0 mm - 149 W/m² -
1787861394 30° C 68% 1009.4 hPa 0 mm - 205 W/m² -
1787861089 30.56° C 65% 1009.5 hPa 0 mm - 221 W/m² -

* Rain latest hour (hover to see other rain measurements)
** Current wind speed in m/s (hover to see current wind gust speed)